createdAt,value
2018-12-17T00:00:23.332Z,0.00
2018-12-17T00:01:23.292Z,0.00
2018-12-17T00:02:23.257Z,0.00
2018-12-17T00:03:23.222Z,0.00
2018-12-17T00:04:23.186Z,0.00
2018-12-17T00:05:23.152Z,0.00
2018-12-17T00:06:23.117Z,0.00
2018-12-17T00:07:23.081Z,0.00
2018-12-17T00:08:23.046Z,0.00
2018-12-17T00:09:23.010Z,0.00
2018-12-17T00:10:22.976Z,0.00
2018-12-17T00:11:22.944Z,0.00
2018-12-17T00:12:22.908Z,0.00
2018-12-17T00:13:22.871Z,0.00
2018-12-17T00:14:22.837Z,0.00
2018-12-17T00:15:22.801Z,0.00
2018-12-17T00:16:22.766Z,0.00
2018-12-17T00:17:22.737Z,0.00
2018-12-17T00:18:22.695Z,0.00
2018-12-17T00:19:22.662Z,0.00
2018-12-17T00:20:22.624Z,0.00
2018-12-17T00:21:22.591Z,0.00
2018-12-17T00:22:22.554Z,0.00
2018-12-17T00:23:22.520Z,0.00
2018-12-17T00:24:22.485Z,0.00
2018-12-17T00:25:22.451Z,0.00
2018-12-17T00:26:22.417Z,0.00
2018-12-17T00:27:22.382Z,0.00
2018-12-17T00:28:22.345Z,0.00
2018-12-17T00:29:22.314Z,0.00
2018-12-17T00:30:22.274Z,0.00
2018-12-17T00:31:22.240Z,0.00
2018-12-17T00:32:22.204Z,0.00
2018-12-17T00:33:22.171Z,0.00
2018-12-17T00:34:22.135Z,0.00
2018-12-17T00:35:22.099Z,0.00
2018-12-17T00:36:22.064Z,0.00
2018-12-17T00:37:22.030Z,0.00
2018-12-17T00:38:21.993Z,0.00
2018-12-17T00:39:21.960Z,0.00
2018-12-17T00:40:21.926Z,0.00
2018-12-17T00:41:21.891Z,0.00
2018-12-17T00:42:21.893Z,0.00
2018-12-17T00:43:21.819Z,0.00
2018-12-17T00:44:21.785Z,0.00
2018-12-17T00:45:21.751Z,0.00
2018-12-17T00:46:21.714Z,0.00
2018-12-17T00:47:21.683Z,0.00
2018-12-17T00:48:21.647Z,0.00
2018-12-17T00:49:21.609Z,0.00
2018-12-17T00:50:21.576Z,0.00
2018-12-17T00:51:21.539Z,0.00
2018-12-17T00:52:21.503Z,0.00
2018-12-17T00:53:21.472Z,0.00
2018-12-17T00:54:21.434Z,0.00
2018-12-17T00:55:21.403Z,0.00
2018-12-17T00:56:21.370Z,0.00
2018-12-17T00:57:21.338Z,0.00
2018-12-17T00:58:21.294Z,0.00
2018-12-17T00:59:21.258Z,0.00
2018-12-17T01:00:21.224Z,0.00
2018-12-17T01:01:21.193Z,0.00
2018-12-17T01:02:21.154Z,0.00
2018-12-17T01:03:21.119Z,0.00
2018-12-17T01:04:21.110Z,0.00
2018-12-17T01:05:21.050Z,0.00
2018-12-17T01:06:21.014Z,0.00
2018-12-17T01:07:20.982Z,0.00
2018-12-17T01:08:20.949Z,0.00
2018-12-17T01:09:20.909Z,0.00
2018-12-17T01:10:20.874Z,0.00
2018-12-17T01:11:20.839Z,0.00
2018-12-17T01:12:20.805Z,0.00
2018-12-17T01:13:20.770Z,0.00
2018-12-17T01:14:20.733Z,0.00
2018-12-17T01:15:20.701Z,0.00
2018-12-17T01:16:20.668Z,0.00
2018-12-17T01:17:20.629Z,0.00
2018-12-17T01:18:20.594Z,0.00
2018-12-17T01:19:20.626Z,0.00
2018-12-17T01:20:20.525Z,0.00
2018-12-17T01:21:20.491Z,0.00
2018-12-17T01:22:20.455Z,0.00
2018-12-17T01:23:20.423Z,0.00
2018-12-17T01:24:20.386Z,0.00
2018-12-17T01:25:20.349Z,0.00
2018-12-17T01:26:20.314Z,0.00
2018-12-17T01:27:20.279Z,0.00
2018-12-17T01:28:22.313Z,0.00
2018-12-17T01:29:20.210Z,0.00
2018-12-17T01:30:20.178Z,0.00
2018-12-17T01:31:20.140Z,0.00
2018-12-17T01:32:20.106Z,0.00
2018-12-17T01:33:20.070Z,0.00
2018-12-17T01:34:20.081Z,0.00
2018-12-17T01:35:20.002Z,0.00
2018-12-17T01:36:19.965Z,0.00
2018-12-17T01:37:19.932Z,0.00
2018-12-17T01:38:19.894Z,0.00
2018-12-17T01:39:19.872Z,0.00
2018-12-17T01:40:19.826Z,0.00
2018-12-17T01:41:19.790Z,0.00
2018-12-17T01:42:19.757Z,0.00
2018-12-17T01:43:19.724Z,0.00
2018-12-17T01:44:19.687Z,0.00
2018-12-17T01:45:19.655Z,0.00
2018-12-17T01:46:19.614Z,0.00
2018-12-17T01:47:19.583Z,0.00
2018-12-17T01:48:19.546Z,0.00
2018-12-17T01:49:19.511Z,0.00
2018-12-17T01:50:19.480Z,0.00
2018-12-17T01:51:19.443Z,0.00
2018-12-17T01:52:19.455Z,0.00
2018-12-17T01:53:19.376Z,0.00
2018-12-17T01:54:19.336Z,0.00
2018-12-17T01:55:19.306Z,0.00
2018-12-17T01:56:19.269Z,0.00
2018-12-17T01:57:19.232Z,0.00
2018-12-17T01:58:19.198Z,0.00
2018-12-17T01:59:19.160Z,0.00
2018-12-17T02:00:19.127Z,0.00
2018-12-17T02:01:19.094Z,0.00
2018-12-17T02:02:19.057Z,0.00
2018-12-17T02:03:19.025Z,0.00
2018-12-17T02:04:18.987Z,0.00
2018-12-17T02:05:18.957Z,0.00
2018-12-17T02:06:18.917Z,0.00
2018-12-17T02:07:18.883Z,0.00
2018-12-17T02:08:18.855Z,0.00
2018-12-17T02:09:18.813Z,0.00
2018-12-17T02:10:18.780Z,0.00
2018-12-17T02:11:18.745Z,0.00
2018-12-17T02:12:18.723Z,0.00
2018-12-17T02:13:18.674Z,0.00
2018-12-17T02:14:18.639Z,0.00
2018-12-17T02:15:18.604Z,0.00
2018-12-17T02:16:18.570Z,0.00
2018-12-17T02:17:18.534Z,0.00
2018-12-17T02:18:18.505Z,0.00
2018-12-17T02:19:18.465Z,0.00
2018-12-17T02:20:18.430Z,0.00
2018-12-17T02:21:18.396Z,0.00
2018-12-17T02:22:18.363Z,0.00
2018-12-17T02:23:18.331Z,0.00
2018-12-17T02:24:18.292Z,0.00
2018-12-17T02:25:18.257Z,0.00
2018-12-17T02:26:18.224Z,0.00
2018-12-17T02:27:18.191Z,0.00
2018-12-17T02:28:18.201Z,0.00
2018-12-17T02:29:18.117Z,0.00
2018-12-17T02:30:18.085Z,0.00
2018-12-17T02:31:18.048Z,0.00
2018-12-17T02:32:18.013Z,0.00
2018-12-17T02:33:17.978Z,0.00
2018-12-17T02:34:17.945Z,0.00
2018-12-17T02:35:17.907Z,0.00
2018-12-17T02:36:17.873Z,0.00
2018-12-17T02:37:17.845Z,0.00
2018-12-17T02:38:17.803Z,0.00
2018-12-17T02:39:17.772Z,0.00
2018-12-17T02:40:17.752Z,0.00
2018-12-17T02:41:17.700Z,0.00
2018-12-17T02:42:17.664Z,0.00
2018-12-17T02:43:17.630Z,0.00
2018-12-17T02:44:17.594Z,0.00
2018-12-17T02:45:17.561Z,0.00
2018-12-17T02:46:17.525Z,0.00
2018-12-17T02:47:17.491Z,0.00
2018-12-17T02:48:17.456Z,0.00
2018-12-17T02:49:17.421Z,0.00
2018-12-17T02:50:17.388Z,0.00
2018-12-17T02:51:17.350Z,0.00
2018-12-17T02:52:17.318Z,0.00
2018-12-17T02:53:17.283Z,0.00
2018-12-17T02:54:17.245Z,0.00
2018-12-17T02:55:17.212Z,0.00
2018-12-17T02:56:17.178Z,0.00
2018-12-17T02:57:17.142Z,0.00
2018-12-17T02:58:17.117Z,0.00
2018-12-17T02:59:17.071Z,0.00
2018-12-17T03:00:17.038Z,0.00
2018-12-17T03:01:17.004Z,0.00
2018-12-17T03:02:16.970Z,0.00
2018-12-17T03:03:16.940Z,0.00
2018-12-17T03:04:16.901Z,0.00
2018-12-17T03:05:16.864Z,0.00
2018-12-17T03:06:16.829Z,0.00
2018-12-17T03:07:16.792Z,0.00
2018-12-17T03:08:16.759Z,0.00
2018-12-17T03:09:16.730Z,0.00
2018-12-17T03:10:16.688Z,0.00
2018-12-17T03:11:16.655Z,0.00
2018-12-17T03:12:16.619Z,0.00
2018-12-17T03:13:16.585Z,0.00
2018-12-17T03:14:16.550Z,0.00
2018-12-17T03:15:16.523Z,0.00
2018-12-17T03:16:16.479Z,0.00
2018-12-17T03:17:16.454Z,0.00
2018-12-17T03:18:16.409Z,0.00
2018-12-17T03:19:16.376Z,0.00
2018-12-17T03:20:16.345Z,0.00
2018-12-17T03:21:16.307Z,0.00
2018-12-17T03:22:16.273Z,0.00
2018-12-17T03:23:16.239Z,0.00
2018-12-17T03:24:16.201Z,0.00
2018-12-17T03:25:16.169Z,0.00
2018-12-17T03:26:16.132Z,0.00
2018-12-17T03:27:16.106Z,0.00
2018-12-17T03:28:16.065Z,0.00
2018-12-17T03:29:16.029Z,0.00
2018-12-17T03:30:15.995Z,0.00
2018-12-17T03:31:15.958Z,0.00
2018-12-17T03:32:15.936Z,0.00
2018-12-17T03:33:15.892Z,0.00
2018-12-17T03:34:15.857Z,0.00
2018-12-17T03:35:15.820Z,0.00
2018-12-17T03:36:15.790Z,0.00
2018-12-17T03:37:15.763Z,0.00
2018-12-17T03:38:15.716Z,0.00
2018-12-17T03:39:15.685Z,0.00
2018-12-17T03:40:15.656Z,0.00
2018-12-17T03:41:15.626Z,0.00
2018-12-17T03:42:15.576Z,0.00
2018-12-17T03:43:15.541Z,0.00
2018-12-17T03:44:15.506Z,0.00
2018-12-17T03:45:15.471Z,0.00
2018-12-17T03:46:15.436Z,0.00
2018-12-17T03:47:15.400Z,0.00
2018-12-17T03:48:15.366Z,0.00
2018-12-17T03:49:15.334Z,0.00
2018-12-17T03:50:15.296Z,0.00
2018-12-17T03:51:15.263Z,0.00
2018-12-17T03:52:15.229Z,0.00
2018-12-17T03:53:15.194Z,0.00
2018-12-17T03:54:15.162Z,0.00
2018-12-17T03:55:15.122Z,0.00
2018-12-17T03:56:15.089Z,0.00
2018-12-17T03:57:15.054Z,0.00
2018-12-17T03:58:15.018Z,0.00
2018-12-17T03:59:14.985Z,0.00
2018-12-17T04:00:14.951Z,0.00
2018-12-17T04:01:14.914Z,0.00
2018-12-17T04:02:14.886Z,0.00
2018-12-17T04:03:14.850Z,0.00
2018-12-17T04:04:14.811Z,0.00
2018-12-17T04:05:14.786Z,0.00
2018-12-17T04:06:14.739Z,0.00
2018-12-17T04:07:14.708Z,0.00
2018-12-17T04:08:14.672Z,0.00
2018-12-17T04:09:14.636Z,0.00
2018-12-17T04:10:14.609Z,0.00
2018-12-17T04:11:14.568Z,0.00
2018-12-17T04:12:14.536Z,0.00
2018-12-17T04:13:14.510Z,0.00
2018-12-17T04:14:14.462Z,0.00
2018-12-17T04:15:14.427Z,0.00
2018-12-17T04:16:14.393Z,0.00
2018-12-17T04:17:14.362Z,0.00
2018-12-17T04:18:14.324Z,0.00
2018-12-17T04:19:14.289Z,0.00
2018-12-17T04:20:14.258Z,0.00
2018-12-17T04:21:14.224Z,0.00
2018-12-17T04:22:14.183Z,0.00
2018-12-17T04:23:14.151Z,0.00
2018-12-17T04:24:14.115Z,0.00
2018-12-17T04:25:14.081Z,0.00
2018-12-17T04:26:14.046Z,0.00
2018-12-17T04:27:14.012Z,0.00
2018-12-17T04:28:13.982Z,0.00
2018-12-17T04:29:13.945Z,0.00
2018-12-17T04:30:13.909Z,0.00
2018-12-17T04:31:13.872Z,0.00
2018-12-17T04:32:13.838Z,0.00
2018-12-17T04:33:13.803Z,0.00
2018-12-17T04:34:13.774Z,0.00
2018-12-17T04:35:13.734Z,0.00
2018-12-17T04:36:13.753Z,0.00
2018-12-17T04:37:13.666Z,0.00
2018-12-17T04:38:13.629Z,0.00
2018-12-17T04:39:13.596Z,0.00
2018-12-17T04:40:13.561Z,0.00
2018-12-17T04:41:13.526Z,0.00
2018-12-17T04:42:13.492Z,0.00
2018-12-17T04:43:13.456Z,0.00
2018-12-17T04:44:13.425Z,0.00
2018-12-17T04:45:13.387Z,0.00
2018-12-17T04:46:13.352Z,0.00
2018-12-17T04:47:13.321Z,0.00
2018-12-17T04:48:13.283Z,0.00
2018-12-17T04:49:13.257Z,0.00
2018-12-17T04:50:13.212Z,0.00
2018-12-17T04:51:13.181Z,0.00
2018-12-17T04:52:13.146Z,0.00
2018-12-17T04:53:13.108Z,0.00
2018-12-17T04:54:13.076Z,0.00
2018-12-17T04:55:13.039Z,0.00
2018-12-17T04:56:13.005Z,0.00
2018-12-17T04:57:12.971Z,0.00
2018-12-17T04:58:12.936Z,0.00
2018-12-17T04:59:14.737Z,0.00
2018-12-17T05:00:12.867Z,0.00
2018-12-17T05:01:12.837Z,0.00
2018-12-17T05:02:12.797Z,0.00
2018-12-17T05:03:12.762Z,0.00
2018-12-17T05:04:12.727Z,0.00
2018-12-17T05:05:12.701Z,0.00
2018-12-17T05:06:12.658Z,0.00
2018-12-17T05:07:12.622Z,0.00
2018-12-17T05:08:12.588Z,0.00
2018-12-17T05:09:12.553Z,0.00
2018-12-17T05:10:12.519Z,0.00
2018-12-17T05:11:12.483Z,0.00
2018-12-17T05:12:12.448Z,0.00
2018-12-17T05:13:12.415Z,0.00
2018-12-17T05:14:12.379Z,0.00
2018-12-17T05:15:12.344Z,0.00
2018-12-17T05:16:12.309Z,0.00
2018-12-17T05:17:12.279Z,0.00
2018-12-17T05:18:12.243Z,0.00
2018-12-17T05:19:12.206Z,0.00
2018-12-17T05:20:12.183Z,0.00
2018-12-17T05:21:12.136Z,0.00
2018-12-17T05:22:12.101Z,0.00
2018-12-17T05:23:12.066Z,0.00
2018-12-17T05:24:12.035Z,0.00
2018-12-17T05:25:11.997Z,0.00
2018-12-17T05:26:11.961Z,0.00
2018-12-17T05:27:11.927Z,0.00
2018-12-17T05:28:11.891Z,0.00
2018-12-17T05:29:11.907Z,0.00
2018-12-17T05:30:11.822Z,0.00
2018-12-17T05:31:11.788Z,0.00
2018-12-17T05:32:11.754Z,0.00
2018-12-17T05:33:11.720Z,0.00
2018-12-17T05:34:11.686Z,0.00
2018-12-17T05:35:11.649Z,0.00
2018-12-17T05:36:11.615Z,0.00
2018-12-17T05:37:11.582Z,0.00
2018-12-17T05:38:12.280Z,0.00
2018-12-17T05:39:11.516Z,0.00
2018-12-17T05:40:11.477Z,0.00
2018-12-17T05:41:11.447Z,0.00
2018-12-17T05:42:11.406Z,0.00
2018-12-17T05:43:11.372Z,0.00
2018-12-17T05:44:11.338Z,0.00
2018-12-17T05:45:11.308Z,0.00
2018-12-17T05:46:11.268Z,0.00
2018-12-17T05:47:11.240Z,0.00
2018-12-17T05:48:11.199Z,0.00
2018-12-17T05:49:11.177Z,0.00
2018-12-17T05:50:11.136Z,0.00
2018-12-17T05:51:11.096Z,0.00
2018-12-17T05:52:11.061Z,0.00
2018-12-17T05:53:11.028Z,0.00
2018-12-17T05:54:10.994Z,0.00
2018-12-17T05:55:10.956Z,0.00
2018-12-17T05:56:10.922Z,0.00
2018-12-17T05:57:10.889Z,0.00
2018-12-17T05:58:11.704Z,0.00
2018-12-17T05:59:10.819Z,0.00
2018-12-17T06:00:10.786Z,0.00
2018-12-17T06:01:10.749Z,0.00
2018-12-17T06:02:10.715Z,0.00
2018-12-17T06:03:10.680Z,0.00
2018-12-17T06:04:10.646Z,0.00
2018-12-17T06:05:10.612Z,0.00
2018-12-17T06:06:10.578Z,0.00
2018-12-17T06:07:10.545Z,0.00
2018-12-17T06:08:10.508Z,0.00
2018-12-17T06:09:10.473Z,0.00
2018-12-17T06:10:10.439Z,0.00
2018-12-17T06:11:10.405Z,0.00
2018-12-17T06:12:10.369Z,0.00
2018-12-17T06:13:10.338Z,0.00
2018-12-17T06:14:10.300Z,0.00
2018-12-17T06:15:10.268Z,0.00
2018-12-17T06:16:10.240Z,0.00
2018-12-17T06:17:10.196Z,0.00
2018-12-17T06:18:10.161Z,0.00
2018-12-17T06:19:10.127Z,0.00
2018-12-17T06:20:10.098Z,0.00
2018-12-17T06:21:10.058Z,0.00
2018-12-17T06:22:10.023Z,0.00
2018-12-17T06:23:09.991Z,0.00
2018-12-17T06:24:09.957Z,0.00
2018-12-17T06:25:09.921Z,0.00
2018-12-17T06:26:09.886Z,0.00
2018-12-17T06:27:09.854Z,0.00
2018-12-17T06:28:09.820Z,0.00
2018-12-17T06:29:09.781Z,0.00
2018-12-17T06:30:09.747Z,0.00
2018-12-17T06:31:09.717Z,0.00
2018-12-17T06:32:09.681Z,0.00
2018-12-17T06:33:15.464Z,0.00
2018-12-17T06:34:09.612Z,0.00
2018-12-17T06:35:09.578Z,0.00
2018-12-17T06:36:09.552Z,0.00
2018-12-17T06:37:09.504Z,0.00
2018-12-17T06:38:09.470Z,0.00
2018-12-17T06:39:09.435Z,0.00
2018-12-17T06:40:10.391Z,0.00
2018-12-17T06:41:09.368Z,0.00
2018-12-17T06:42:09.333Z,0.00
2018-12-17T06:43:09.301Z,0.00
2018-12-17T06:44:09.266Z,0.00
2018-12-17T06:45:09.230Z,0.00
2018-12-17T06:46:09.195Z,0.00
2018-12-17T06:47:09.161Z,4.00
2018-12-17T06:48:09.125Z,4.00
2018-12-17T06:49:09.092Z,4.00
2018-12-17T06:50:09.057Z,4.00
2018-12-17T06:51:09.022Z,4.00
2018-12-17T06:52:08.990Z,4.00
2018-12-17T06:53:08.954Z,0.00
2018-12-17T06:54:08.920Z,4.00
2018-12-17T06:55:08.888Z,4.00
2018-12-17T06:56:08.849Z,4.00
2018-12-17T06:57:08.821Z,4.00
2018-12-17T06:58:08.780Z,4.00
2018-12-17T06:59:08.774Z,4.00
2018-12-17T07:00:08.713Z,8.00
2018-12-17T07:01:08.677Z,8.00
2018-12-17T07:02:08.646Z,8.00
2018-12-17T07:03:08.609Z,12.00
2018-12-17T07:04:08.578Z,8.00
2018-12-17T07:05:08.545Z,12.00
2018-12-17T07:06:08.516Z,12.00
2018-12-17T07:07:08.471Z,12.00
2018-12-17T07:08:08.441Z,16.00
2018-12-17T07:09:08.402Z,16.00
2018-12-17T07:10:08.371Z,20.00
2018-12-17T07:11:08.334Z,24.00
2018-12-17T07:12:08.298Z,24.00
2018-12-17T07:13:08.266Z,28.00
2018-12-17T07:14:08.232Z,32.00
2018-12-17T07:15:08.198Z,36.00
2018-12-17T07:16:08.165Z,44.00
2018-12-17T07:17:08.128Z,48.00
2018-12-17T07:18:08.102Z,52.00
2018-12-17T07:19:08.061Z,56.00
2018-12-17T07:20:08.026Z,64.00
2018-12-17T07:21:07.991Z,72.00
2018-12-17T07:22:07.954Z,80.00
2018-12-17T07:23:07.921Z,92.00
2018-12-17T07:24:07.890Z,108.00
2018-12-17T07:25:07.854Z,112.00
2018-12-17T07:26:07.819Z,120.00
2018-12-17T07:27:07.784Z,136.00
2018-12-17T07:28:07.750Z,160.00
2018-12-17T07:29:07.721Z,176.00
2018-12-17T07:30:07.681Z,192.00
2018-12-17T07:31:07.646Z,200.00
2018-12-17T07:32:07.623Z,216.00
2018-12-17T07:33:07.579Z,236.00
2018-12-17T07:34:07.542Z,260.00
2018-12-17T07:35:07.510Z,288.00
2018-12-17T07:36:07.494Z,300.00
2018-12-17T07:37:07.441Z,332.00
2018-12-17T07:38:07.409Z,356.00
2018-12-17T07:39:07.371Z,376.00
2018-12-17T07:40:07.337Z,380.00
2018-12-17T07:41:07.303Z,392.00
2018-12-17T07:42:07.271Z,416.00
2018-12-17T07:43:07.235Z,436.00
2018-12-17T07:44:07.200Z,432.00
2018-12-17T07:45:07.170Z,456.00
2018-12-17T07:46:07.132Z,520.00
2018-12-17T07:47:07.100Z,552.00
2018-12-17T07:48:07.064Z,580.00
2018-12-17T07:49:07.029Z,632.00
2018-12-17T07:50:06.994Z,664.00
2018-12-17T07:51:06.962Z,716.00
2018-12-17T07:52:06.928Z,732.00
2018-12-17T07:53:06.892Z,712.00
2018-12-17T07:54:06.859Z,680.00
2018-12-17T07:55:06.824Z,684.00
2018-12-17T07:56:06.789Z,716.00
2018-12-17T07:57:06.757Z,720.00
2018-12-17T07:58:06.719Z,732.00
2018-12-17T07:59:06.687Z,760.00
2018-12-17T08:00:06.652Z,832.00
2018-12-17T08:01:06.618Z,884.00
2018-12-17T08:02:06.584Z,928.00
2018-12-17T08:03:06.548Z,896.00
2018-12-17T08:04:06.570Z,808.00
2018-12-17T08:05:06.488Z,832.00
2018-12-17T08:06:06.445Z,876.00
2018-12-17T08:07:06.412Z,908.00
2018-12-17T08:08:06.378Z,976.00
2018-12-17T08:09:06.346Z,1044.00
2018-12-17T08:10:06.314Z,1032.00
2018-12-17T08:11:06.277Z,1036.00
2018-12-17T08:12:06.289Z,1096.00
2018-12-17T08:13:06.206Z,1164.00
2018-12-17T08:14:06.171Z,1204.00
2018-12-17T08:15:06.138Z,1276.00
2018-12-17T08:16:06.104Z,1200.00
2018-12-17T08:17:06.075Z,1200.00
2018-12-17T08:18:06.040Z,1264.00
2018-12-17T08:19:05.999Z,1284.00
2018-12-17T08:20:05.967Z,1296.00
2018-12-17T08:21:05.944Z,1360.00
2018-12-17T08:22:05.898Z,1368.00
2018-12-17T08:23:05.867Z,1336.00
2018-12-17T08:24:05.831Z,1312.00
2018-12-17T08:25:05.798Z,1368.00
2018-12-17T08:26:05.761Z,1440.00
2018-12-17T08:27:05.728Z,1348.00
2018-12-17T08:28:05.695Z,1416.00
2018-12-17T08:29:05.660Z,1596.00
2018-12-17T08:30:05.626Z,1616.00
2018-12-17T08:31:05.592Z,1620.00
2018-12-17T08:32:05.557Z,1724.00
2018-12-17T08:33:05.525Z,1772.00
2018-12-17T08:34:05.490Z,1676.00
2018-12-17T08:35:05.456Z,1792.00
2018-12-17T08:36:05.421Z,1936.00
2018-12-17T08:37:05.387Z,1944.00
2018-12-17T08:38:05.354Z,1956.00
2018-12-17T08:39:05.320Z,2036.00
2018-12-17T08:40:05.299Z,2040.00
2018-12-17T08:41:05.253Z,2144.00
2018-12-17T08:42:05.217Z,2308.00
2018-12-17T08:43:05.252Z,2268.00
2018-12-17T08:44:05.154Z,2212.00
2018-12-17T08:45:05.119Z,2292.00
2018-12-17T08:46:05.084Z,2432.00
2018-12-17T08:47:05.049Z,2692.00
2018-12-17T08:48:05.020Z,2768.00
2018-12-17T08:49:04.995Z,2960.00
2018-12-17T08:50:04.947Z,2960.00
2018-12-17T08:51:04.914Z,3024.00
2018-12-17T08:52:04.883Z,3112.00
2018-12-17T08:53:04.846Z,3116.00
2018-12-17T08:54:04.813Z,2764.00
2018-12-17T08:55:04.779Z,2488.00
2018-12-17T08:56:04.745Z,2344.00
2018-12-17T08:57:04.712Z,2396.00
2018-12-17T08:58:04.688Z,2380.00
2018-12-17T08:59:04.966Z,2468.00
2018-12-17T09:00:10.788Z,2400.00
2018-12-17T09:01:04.576Z,2512.00
2018-12-17T09:02:04.544Z,2556.00
2018-12-17T09:03:04.509Z,2808.00
2018-12-17T09:04:04.475Z,2920.00
2018-12-17T09:05:04.443Z,3176.00
2018-12-17T09:06:04.408Z,3216.00
2018-12-17T09:07:04.382Z,3236.00
2018-12-17T09:08:04.344Z,3524.00
2018-12-17T09:09:04.310Z,3524.00
2018-12-17T09:10:04.279Z,3296.00
2018-12-17T09:11:04.245Z,2968.00
2018-12-17T09:12:04.210Z,2844.00
2018-12-17T09:13:04.174Z,2912.00
2018-12-17T09:14:04.139Z,2848.00
2018-12-17T09:15:04.107Z,2820.00
2018-12-17T09:16:04.073Z,2904.00
2018-12-17T09:17:04.050Z,3000.00
2018-12-17T09:18:04.013Z,3228.00
2018-12-17T09:19:03.975Z,3440.00
2018-12-17T09:20:03.938Z,3296.00
2018-12-17T09:21:03.909Z,3104.00
2018-12-17T09:22:03.872Z,2984.00
2018-12-17T09:23:03.841Z,2956.00
2018-12-17T09:24:03.806Z,3136.00
2018-12-17T09:25:03.771Z,3040.00
2018-12-17T09:26:03.745Z,2992.00
2018-12-17T09:27:03.704Z,3244.00
2018-12-17T09:28:03.672Z,3156.00
2018-12-17T09:29:03.643Z,3244.00
2018-12-17T09:30:03.604Z,3568.00
2018-12-17T09:31:03.570Z,3812.00
2018-12-17T09:32:03.537Z,3928.00
2018-12-17T09:33:03.528Z,3876.00
2018-12-17T09:34:03.471Z,4232.00
2018-12-17T09:35:03.457Z,4116.00
2018-12-17T09:36:03.404Z,4020.00
2018-12-17T09:37:03.372Z,3444.00
2018-12-17T09:38:03.342Z,3180.00
2018-12-17T09:39:03.305Z,3280.00
2018-12-17T09:40:03.290Z,2960.00
2018-12-17T09:41:03.238Z,2768.00
2018-12-17T09:42:03.210Z,2880.00
2018-12-17T09:43:03.179Z,3100.00
2018-12-17T09:44:03.845Z,3204.00
2018-12-17T09:45:03.105Z,3320.00
2018-12-17T09:46:03.073Z,3280.00
2018-12-17T09:47:03.061Z,3388.00
2018-12-17T09:48:03.010Z,3768.00
2018-12-17T09:49:02.977Z,3948.00
2018-12-17T09:50:02.937Z,3804.00
2018-12-17T09:51:02.906Z,3760.00
2018-12-17T09:52:02.880Z,3792.00
2018-12-17T09:53:02.840Z,3808.00
2018-12-17T09:54:02.816Z,3720.00
2018-12-17T09:55:02.775Z,3512.00
2018-12-17T09:56:02.739Z,3748.00
2018-12-17T09:57:02.718Z,4060.00
2018-12-17T09:58:02.671Z,4156.00
2018-12-17T09:59:02.652Z,3924.00
2018-12-17T10:00:02.607Z,4416.00
2018-12-17T10:01:02.586Z,4388.00
2018-12-17T10:02:02.540Z,4888.00
2018-12-17T10:03:02.505Z,4428.00
2018-12-17T10:04:02.473Z,4336.00
2018-12-17T10:05:02.446Z,4644.00
2018-12-17T10:06:02.405Z,5112.00
2018-12-17T10:07:02.374Z,5108.00
2018-12-17T10:08:02.340Z,5380.00
2018-12-17T10:09:02.307Z,5468.00
2018-12-17T10:10:02.273Z,5148.00
2018-12-17T10:11:02.243Z,4216.00
2018-12-17T10:12:02.207Z,3652.00
2018-12-17T10:13:02.174Z,3628.00
2018-12-17T10:14:02.140Z,3928.00
2018-12-17T10:15:02.107Z,3884.00
2018-12-17T10:16:02.087Z,3904.00
2018-12-17T10:17:02.048Z,4236.00
2018-12-17T10:18:02.010Z,4628.00
2018-12-17T10:19:01.984Z,4888.00
2018-12-17T10:20:01.943Z,4884.00
2018-12-17T10:21:01.926Z,3956.00
2018-12-17T10:22:01.875Z,3696.00
2018-12-17T10:23:01.850Z,3788.00
2018-12-17T10:24:01.809Z,4184.00
2018-12-17T10:25:01.780Z,4000.00
2018-12-17T10:26:01.743Z,4076.00
2018-12-17T10:27:01.711Z,4092.00
2018-12-17T10:28:01.676Z,3800.00
2018-12-17T10:29:01.643Z,4336.00
2018-12-17T10:30:01.609Z,4444.00
2018-12-17T10:31:01.576Z,3848.00
2018-12-17T10:32:01.543Z,3540.00
2018-12-17T10:33:01.509Z,3616.00
2018-12-17T10:34:01.475Z,3676.00
2018-12-17T10:35:01.444Z,3352.00
2018-12-17T10:36:01.416Z,3456.00
2018-12-17T10:37:01.376Z,3572.00
2018-12-17T10:38:01.343Z,3752.00
2018-12-17T10:39:01.317Z,3876.00
2018-12-17T10:40:01.281Z,4244.00
2018-12-17T10:41:01.247Z,4412.00
2018-12-17T10:42:01.212Z,4272.00
2018-12-17T10:43:01.178Z,4284.00
2018-12-17T10:44:01.148Z,4148.00
2018-12-17T10:45:01.116Z,3736.00
2018-12-17T10:46:01.078Z,3504.00
2018-12-17T10:47:01.053Z,3596.00
2018-12-17T10:48:01.011Z,3068.00
2018-12-17T10:49:00.980Z,2840.00
2018-12-17T10:50:00.952Z,2616.00
2018-12-17T10:51:00.913Z,2788.00
2018-12-17T10:52:00.880Z,3024.00
2018-12-17T10:53:00.846Z,2728.00
2018-12-17T10:54:00.815Z,3144.00
2018-12-17T10:55:00.783Z,3232.00
2018-12-17T10:56:00.749Z,3652.00
2018-12-17T10:57:00.714Z,4172.00
2018-12-17T10:58:00.679Z,4400.00
2018-12-17T10:59:00.650Z,4508.00
2018-12-17T11:00:00.624Z,4284.00
2018-12-17T11:01:00.582Z,3928.00
2018-12-17T11:02:00.547Z,4536.00
2018-12-17T11:03:00.515Z,4124.00
2018-12-17T11:04:00.482Z,4592.00
2018-12-17T11:05:00.455Z,4652.00
2018-12-17T11:06:00.432Z,4580.00
2018-12-17T11:07:00.383Z,4576.00
2018-12-17T11:08:00.353Z,5056.00
2018-12-17T11:09:00.316Z,4800.00
2018-12-17T11:10:00.282Z,4412.00
2018-12-17T11:11:00.248Z,4216.00
2018-12-17T11:12:00.217Z,4196.00
2018-12-17T11:13:00.186Z,4520.00
2018-12-17T11:14:00.150Z,4896.00
2018-12-17T11:15:00.117Z,5492.00
2018-12-17T11:16:00.088Z,5476.00
2018-12-17T11:17:00.052Z,5620.00
2018-12-17T11:18:00.019Z,5464.00
2018-12-17T11:18:59.991Z,5676.00
2018-12-17T11:19:59.963Z,5936.00
2018-12-17T11:20:59.920Z,5668.00
2018-12-17T11:21:59.885Z,5108.00
2018-12-17T11:22:59.856Z,4912.00
2018-12-17T11:23:59.820Z,4564.00
2018-12-17T11:24:59.797Z,4052.00
2018-12-17T11:25:59.755Z,4272.00
2018-12-17T11:26:59.721Z,4572.00
2018-12-17T11:27:59.689Z,4572.00
2018-12-17T11:28:59.657Z,4604.00
2018-12-17T11:29:59.624Z,5104.00
2018-12-17T11:30:59.593Z,5344.00
2018-12-17T11:31:59.558Z,5308.00
2018-12-17T11:32:59.525Z,5612.00
2018-12-17T11:33:59.491Z,5628.00
2018-12-17T11:34:59.458Z,6056.00
2018-12-17T11:35:59.426Z,6264.00
2018-12-17T11:36:59.394Z,6744.00
2018-12-17T11:37:59.362Z,6804.00
2018-12-17T11:38:59.331Z,6860.00
2018-12-17T11:39:59.295Z,7084.00
2018-12-17T11:40:59.261Z,6704.00
2018-12-17T11:41:59.228Z,6628.00
2018-12-17T11:42:59.195Z,7136.00
2018-12-17T11:43:59.167Z,8136.00
2018-12-17T11:44:59.131Z,8692.00
2018-12-17T11:45:59.101Z,8716.00
2018-12-17T11:46:59.064Z,9232.00
2018-12-17T11:47:59.032Z,9448.00
2018-12-17T11:48:58.999Z,8836.00
2018-12-17T11:49:58.966Z,7108.00
2018-12-17T11:50:58.933Z,5876.00
2018-12-17T11:51:58.906Z,4996.00
2018-12-17T11:52:58.868Z,4416.00
2018-12-17T11:53:58.834Z,3956.00
2018-12-17T11:54:58.807Z,3464.00
2018-12-17T11:55:58.771Z,3240.00
2018-12-17T11:56:58.737Z,3364.00
2018-12-17T11:57:58.708Z,4044.00
2018-12-17T11:58:58.671Z,4280.00
2018-12-17T11:59:58.640Z,4540.00
2018-12-17T12:00:58.612Z,4548.00
2018-12-17T12:01:58.574Z,4728.00
2018-12-17T12:02:59.251Z,4712.00
2018-12-17T12:03:58.509Z,4672.00
2018-12-17T12:04:58.476Z,4812.00
2018-12-17T12:05:58.446Z,4880.00
2018-12-17T12:06:58.411Z,5228.00
2018-12-17T12:07:58.376Z,5924.00
2018-12-17T12:08:58.344Z,5876.00
2018-12-17T12:09:58.319Z,6196.00
2018-12-17T12:10:58.293Z,6292.00
2018-12-17T12:11:58.246Z,6832.00
2018-12-17T12:12:58.213Z,7248.00
2018-12-17T12:13:58.188Z,7600.00
2018-12-17T12:14:58.147Z,7828.00
2018-12-17T12:15:58.113Z,8280.00
2018-12-17T12:16:58.083Z,8488.00
2018-12-17T12:17:58.052Z,8452.00
2018-12-17T12:18:58.016Z,8668.00
2018-12-17T12:19:57.983Z,8844.00
2018-12-17T12:20:57.949Z,9008.00
2018-12-17T12:21:57.941Z,8808.00
2018-12-17T12:22:57.883Z,7332.00
2018-12-17T12:23:57.867Z,5980.00
2018-12-17T12:24:57.820Z,5652.00
2018-12-17T12:25:57.790Z,5588.00
2018-12-17T12:26:57.754Z,5304.00
2018-12-17T12:27:57.723Z,4880.00
2018-12-17T12:28:57.688Z,4696.00
2018-12-17T12:29:57.660Z,4756.00
2018-12-17T12:31:00.537Z,4756.00
2018-12-17T12:31:57.591Z,4952.00
2018-12-17T12:32:57.561Z,4872.00
2018-12-17T12:33:57.526Z,4940.00
2018-12-17T12:34:57.493Z,4912.00
2018-12-17T12:35:57.469Z,4464.00
2018-12-17T12:36:57.438Z,4200.00
2018-12-17T12:37:57.396Z,4156.00
2018-12-17T12:38:57.368Z,3788.00
2018-12-17T12:39:57.329Z,3764.00
2018-12-17T12:40:57.299Z,3728.00
2018-12-17T12:41:57.265Z,3764.00
2018-12-17T12:42:57.233Z,3916.00
2018-12-17T12:43:57.202Z,3800.00
2018-12-17T12:44:57.167Z,3868.00
2018-12-17T12:45:57.133Z,3980.00